createdAt,value
2022-10-24T00:01:40.965Z,2.20
2022-10-24T00:04:10.546Z,2.42
2022-10-24T00:06:38.603Z,1.85
2022-10-24T00:09:06.921Z,2.15
2022-10-24T00:11:35.929Z,2.10
2022-10-24T00:14:04.333Z,1.90
2022-10-24T00:16:32.807Z,2.42
2022-10-24T00:19:00.873Z,2.13
2022-10-24T00:21:30.685Z,2.03
2022-10-24T00:23:58.731Z,1.75
2022-10-24T00:26:26.771Z,2.50
2022-10-24T00:28:54.895Z,1.92
2022-10-24T00:31:23.174Z,1.50
2022-10-24T00:33:51.619Z,2.20
2022-10-24T00:36:23.375Z,1.63
2022-10-24T00:38:53.910Z,2.42
2022-10-24T00:41:25.510Z,1.50
2022-10-24T00:44:14.508Z,2.10
2022-10-24T00:46:45.478Z,1.65
2022-10-24T00:49:16.242Z,1.75
2022-10-24T00:51:45.453Z,2.05
2022-10-24T00:54:16.109Z,2.42
2022-10-24T00:56:50.892Z,2.15
2022-10-24T00:59:20.843Z,1.95
2022-10-24T01:01:49.335Z,1.63
2022-10-24T01:04:17.415Z,1.92
2022-10-24T01:06:51.992Z,1.90
2022-10-24T01:09:31.687Z,1.90
2022-10-24T01:12:07.961Z,1.60
2022-10-24T01:14:48.898Z,1.67
2022-10-24T01:17:22.662Z,1.55
2022-10-24T01:20:16.413Z,1.17
2022-10-24T01:22:59.349Z,1.75
2022-10-24T01:25:39.975Z,1.85
2022-10-24T01:28:13.121Z,2.60
2022-10-24T01:30:46.546Z,1.58
2022-10-24T01:33:21.509Z,1.95
2022-10-24T01:35:54.803Z,1.63
2022-10-24T01:38:28.527Z,2.20
2022-10-24T01:40:59.793Z,1.60
2022-10-24T01:43:30.126Z,1.70
2022-10-24T01:46:04.418Z,1.85
2022-10-24T01:48:36.843Z,1.27
2022-10-24T01:51:06.627Z,1.20
2022-10-24T01:53:37.226Z,1.42
2022-10-24T01:56:06.753Z,1.20
2022-10-24T01:58:34.767Z,1.52
2022-10-24T02:01:09.653Z,1.35
2022-10-24T02:03:40.063Z,1.30
2022-10-24T02:06:11.843Z,1.90
2022-10-24T02:08:44.815Z,2.13
2022-10-24T02:11:13.559Z,1.70
2022-10-24T02:13:47.966Z,1.30
2022-10-24T02:16:19.503Z,1.83
2022-10-24T02:18:48.888Z,1.60
2022-10-24T02:21:23.319Z,1.30
2022-10-24T02:23:55.979Z,1.80
2022-10-24T02:26:32.474Z,1.63
2022-10-24T02:29:03.887Z,1.88
2022-10-24T02:31:37.895Z,1.90
2022-10-24T02:34:08.617Z,1.77
2022-10-24T02:36:38.503Z,1.58
2022-10-24T02:39:09.496Z,1.95
2022-10-24T02:41:40.349Z,1.80
2022-10-24T02:44:11.133Z,2.10
2022-10-24T02:46:41.893Z,1.73
2022-10-24T02:49:09.977Z,2.22
2022-10-24T02:51:42.205Z,2.13
2022-10-24T02:54:11.148Z,2.28
2022-10-24T02:56:42.912Z,2.30
2022-10-24T02:59:10.957Z,2.22
2022-10-24T03:01:40.315Z,2.03
2022-10-24T03:04:08.891Z,2.22
2022-10-24T03:06:37.142Z,2.03
2022-10-24T03:09:05.479Z,2.08
2022-10-24T03:11:33.514Z,2.25
2022-10-24T03:14:01.897Z,1.83
2022-10-24T03:16:29.877Z,1.90
2022-10-24T03:18:59.574Z,2.42
2022-10-24T03:21:27.709Z,2.50
2022-10-24T03:23:55.842Z,3.00
2022-10-24T03:26:23.855Z,2.63
2022-10-24T03:28:51.809Z,2.75
2022-10-24T03:31:19.786Z,2.95
2022-10-24T03:33:47.934Z,2.47
2022-10-24T03:36:17.337Z,3.03
2022-10-24T03:38:45.557Z,3.13
2022-10-24T03:41:13.560Z,2.60
2022-10-24T03:43:41.550Z,2.70
2022-10-24T03:46:09.719Z,2.83
2022-10-24T03:48:38.121Z,2.58
2022-10-24T03:51:06.283Z,3.28
2022-10-24T03:53:36.128Z,2.47
2022-10-24T03:56:04.657Z,2.47
2022-10-24T03:58:32.660Z,3.28
2022-10-24T04:01:00.884Z,2.83
2022-10-24T04:03:29.551Z,2.67
2022-10-24T04:05:57.539Z,3.13
2022-10-24T04:08:25.591Z,3.00
2022-10-24T04:10:55.001Z,2.67
2022-10-24T04:13:23.145Z,2.63
2022-10-24T04:15:51.180Z,3.00
2022-10-24T04:18:19.243Z,2.90
2022-10-24T04:20:47.328Z,3.13
2022-10-24T04:23:15.786Z,3.05
2022-10-24T04:25:44.150Z,2.90
2022-10-24T04:28:13.779Z,2.45
2022-10-24T04:33:14.891Z,2.70
2022-10-24T04:35:49.104Z,2.72
2022-10-24T04:38:17.480Z,3.10
2022-10-24T04:40:47.330Z,3.13
2022-10-24T04:43:17.351Z,2.58
2022-10-24T04:45:45.598Z,3.25
2022-10-24T04:48:13.809Z,3.08
2022-10-24T04:50:42.432Z,2.88
2022-10-24T04:53:14.358Z,3.55
2022-10-24T04:55:42.776Z,3.25
2022-10-24T04:58:11.061Z,3.00
2022-10-24T05:00:42.803Z,3.35
2022-10-24T05:03:10.959Z,2.70
2022-10-24T05:05:39.292Z,2.72
2022-10-24T05:08:07.525Z,3.50
2022-10-24T05:10:35.723Z,2.75
2022-10-24T05:13:03.798Z,3.35
2022-10-24T05:15:32.030Z,3.28
2022-10-24T05:18:01.796Z,2.60
2022-10-24T05:20:30.381Z,3.30
2022-10-24T05:22:58.573Z,3.33
2022-10-24T05:25:26.804Z,2.75
2022-10-24T05:27:55.111Z,3.47
2022-10-24T05:30:23.157Z,2.70
2022-10-24T05:32:51.328Z,3.40
2022-10-24T05:35:21.330Z,3.65
2022-10-24T05:37:49.383Z,2.90
2022-10-24T05:40:17.561Z,2.92
2022-10-24T05:42:45.932Z,3.35
2022-10-24T05:45:14.358Z,2.80
2022-10-24T05:47:42.475Z,3.30
2022-10-24T05:50:11.316Z,3.00
2022-10-24T05:52:46.146Z,4.63
2022-10-24T05:55:18.069Z,3.45
2022-10-24T05:57:47.290Z,3.00
2022-10-24T06:00:17.701Z,2.88
2022-10-24T06:05:20.764Z,3.22
2022-10-24T06:07:50.449Z,3.30
2022-10-24T06:10:18.575Z,2.70
2022-10-24T06:12:46.833Z,2.58
2022-10-24T06:15:14.989Z,2.45
2022-10-24T06:17:43.222Z,2.80
2022-10-24T06:20:12.048Z,2.38
2022-10-24T06:22:40.795Z,2.50
2022-10-24T06:25:11.319Z,2.90
2022-10-24T06:27:39.481Z,3.05
2022-10-24T06:30:10.271Z,2.35
2022-10-24T06:32:40.773Z,2.78
2022-10-24T06:35:13.702Z,2.45
2022-10-24T06:37:44.405Z,2.25
2022-10-24T06:40:17.385Z,2.20
2022-10-24T06:42:45.852Z,2.67
2022-10-24T06:45:14.693Z,2.13
2022-10-24T06:47:43.252Z,2.70
2022-10-24T06:50:11.656Z,2.60
2022-10-24T06:52:39.953Z,2.15
2022-10-24T06:55:08.791Z,2.50
2022-10-24T06:57:38.132Z,2.55
2022-10-24T07:00:07.336Z,2.30
2022-10-24T07:02:35.830Z,2.05
2022-10-24T07:05:04.636Z,2.53
2022-10-24T07:07:32.847Z,2.65
2022-10-24T07:10:01.159Z,2.67
2022-10-24T07:12:29.224Z,2.97
2022-10-24T07:15:01.275Z,2.60
2022-10-24T07:17:30.000Z,2.97
2022-10-24T07:19:58.056Z,2.80
2022-10-24T07:22:28.271Z,2.58
2022-10-24T07:24:58.309Z,2.25
2022-10-24T07:27:26.395Z,2.17
2022-10-24T07:29:54.757Z,2.20
2022-10-24T07:32:24.502Z,2.20
2022-10-24T07:34:52.745Z,1.90
2022-10-24T07:37:20.999Z,2.25
2022-10-24T07:39:49.205Z,1.75
2022-10-24T07:42:18.845Z,2.33
2022-10-24T07:44:47.135Z,1.85
2022-10-24T07:47:15.207Z,1.85
2022-10-24T07:49:44.871Z,2.03
2022-10-24T07:52:12.919Z,1.80
2022-10-24T07:54:40.926Z,1.92
2022-10-24T07:57:09.081Z,2.45
2022-10-24T07:59:42.127Z,1.80
2022-10-24T08:02:11.928Z,2.17
2022-10-24T08:04:40.000Z,1.77
2022-10-24T08:07:13.429Z,2.53
2022-10-24T08:09:43.022Z,1.80
2022-10-24T08:12:11.514Z,2.08
2022-10-24T08:14:40.897Z,2.20
2022-10-24T08:17:09.519Z,2.33
2022-10-24T08:19:43.781Z,1.90
2022-10-24T08:22:14.034Z,2.25
2022-10-24T08:24:43.647Z,2.42
2022-10-24T08:27:12.333Z,1.95
2022-10-24T08:29:40.702Z,1.90
2022-10-24T08:32:08.811Z,2.55
2022-10-24T08:34:38.506Z,2.35
2022-10-24T08:37:06.593Z,2.42
2022-10-24T08:39:36.204Z,2.10
2022-10-24T08:42:06.792Z,2.20
2022-10-24T08:44:38.021Z,2.08
2022-10-24T08:47:11.983Z,2.00
2022-10-24T08:49:50.334Z,2.15
2022-10-24T08:52:32.136Z,2.25
2022-10-24T08:55:20.233Z,2.00
2022-10-24T08:57:55.518Z,2.28
2022-10-24T09:00:25.472Z,2.97
2022-10-24T09:03:00.614Z,2.70
2022-10-24T09:05:37.598Z,2.13
2022-10-24T09:08:21.474Z,2.30
2022-10-24T09:10:58.305Z,1.87
2022-10-24T09:13:28.454Z,1.65
2022-10-24T09:15:57.221Z,2.20
2022-10-24T09:18:28.251Z,2.20
2022-10-24T09:20:56.387Z,2.15
2022-10-24T09:23:25.475Z,2.40
2022-10-24T09:25:58.770Z,2.10
2022-10-24T09:28:27.345Z,2.40
2022-10-24T09:30:55.410Z,1.92
2022-10-24T09:33:28.420Z,2.10
2022-10-24T09:35:58.903Z,2.17
2022-10-24T09:38:33.633Z,1.45
2022-10-24T09:41:05.601Z,2.25
2022-10-24T09:43:38.581Z,2.17
2022-10-24T09:46:09.830Z,1.75
2022-10-24T09:48:49.331Z,1.73
2022-10-24T09:51:23.121Z,1.60
2022-10-24T09:54:04.701Z,1.80
2022-10-24T09:56:43.427Z,1.67
2022-10-24T09:59:26.581Z,1.33
2022-10-24T10:01:55.185Z,1.55
2022-10-24T10:04:23.316Z,1.65
2022-10-24T10:06:52.067Z,1.40
2022-10-24T10:09:28.410Z,1.00
2022-10-24T10:12:03.462Z,1.27
2022-10-24T10:14:32.672Z,1.10
2022-10-24T10:17:02.775Z,1.00
2022-10-24T10:19:34.243Z,0.90
2022-10-24T10:22:03.818Z,1.30
2022-10-24T10:24:39.238Z,1.02
2022-10-24T10:27:30.431Z,0.93
2022-10-24T10:30:17.929Z,1.10
2022-10-24T10:32:54.843Z,0.82
2022-10-24T10:35:27.580Z,0.63
2022-10-24T10:38:01.925Z,0.70
2022-10-24T10:40:33.833Z,0.60
2022-10-24T10:43:19.530Z,0.82
2022-10-24T10:45:49.701Z,0.80
2022-10-24T10:48:39.126Z,0.70
2022-10-24T10:51:17.811Z,0.80
2022-10-24T10:53:52.188Z,0.60
2022-10-24T10:56:32.246Z,0.90
2022-10-24T10:59:19.322Z,0.88
2022-10-24T11:01:58.149Z,0.60
2022-10-24T11:04:34.634Z,0.80
2022-10-24T11:07:10.023Z,0.77
2022-10-24T11:09:43.300Z,0.95
2022-10-24T11:12:18.621Z,0.60
2022-10-24T11:14:51.475Z,0.70
2022-10-24T11:17:24.540Z,0.70
2022-10-24T11:20:04.487Z,1.00
2022-10-24T11:22:39.680Z,0.60
2022-10-24T11:25:18.417Z,0.65
2022-10-24T11:27:53.672Z,0.73
2022-10-24T11:30:41.559Z,1.00
2022-10-24T11:33:18.882Z,0.70
2022-10-24T11:36:09.703Z,1.00
2022-10-24T11:38:45.386Z,0.80
2022-10-24T11:41:36.805Z,0.75
2022-10-24T11:44:13.591Z,0.63
2022-10-24T11:46:49.134Z,0.82
2022-10-24T11:49:23.673Z,0.55
2022-10-24T11:51:56.973Z,0.63
2022-10-24T11:54:30.216Z,0.57
2022-10-24T11:57:03.092Z,0.63
2022-10-24T11:59:31.460Z,0.60
2022-10-24T12:02:45.400Z,0.77
2022-10-24T12:05:43.925Z,0.70
2022-10-24T12:08:28.931Z,0.88
2022-10-24T12:11:13.821Z,1.00
2022-10-24T12:14:19.161Z,0.70
2022-10-24T12:17:04.959Z,0.55
2022-10-24T12:19:36.830Z,0.50
2022-10-24T12:22:06.186Z,0.70
2022-10-24T12:24:38.120Z,0.82
2022-10-24T12:27:08.874Z,0.60
2022-10-24T12:29:38.790Z,0.60
2022-10-24T12:32:25.377Z,0.70
2022-10-24T12:35:29.883Z,0.60
2022-10-24T12:37:51.680Z,0.63
2022-10-24T12:40:49.685Z,0.50
2022-10-24T12:43:29.544Z,0.43
2022-10-24T12:46:00.246Z,0.73
2022-10-24T12:49:06.488Z,0.80
2022-10-24T12:51:37.654Z,0.75
2022-10-24T12:54:16.205Z,0.70
2022-10-24T12:57:30.304Z,0.50
2022-10-24T12:59:59.594Z,0.50
2022-10-24T13:03:05.390Z,1.05
2022-10-24T13:05:57.301Z,0.60
2022-10-24T13:08:43.210Z,0.60
2022-10-24T13:11:27.734Z,0.60
2022-10-24T13:14:16.902Z,0.45
2022-10-24T13:16:59.212Z,0.43
2022-10-24T13:19:28.489Z,0.40
2022-10-24T13:21:58.196Z,0.70
2022-10-24T13:24:34.984Z,0.68
2022-10-24T13:27:28.746Z,0.43
2022-10-24T13:30:25.739Z,0.43
2022-10-24T13:33:27.538Z,0.68
2022-10-24T13:35:56.779Z,0.93
2022-10-24T13:38:26.109Z,0.50
2022-10-24T13:40:56.185Z,0.88
2022-10-24T13:43:24.433Z,0.50
2022-10-24T13:46:00.443Z,0.40
2022-10-24T13:48:32.616Z,0.30
2022-10-24T13:51:07.836Z,0.40
2022-10-24T13:53:46.215Z,0.43
2022-10-24T13:56:16.468Z,0.60
2022-10-24T13:58:46.499Z,0.73
2022-10-24T14:01:20.211Z,0.63
2022-10-24T14:03:50.413Z,0.40
2022-10-24T14:06:25.890Z,0.60
2022-10-24T14:09:06.537Z,0.50
2022-10-24T14:11:41.692Z,0.85
2022-10-24T14:14:27.471Z,1.10
2022-10-24T14:17:22.963Z,0.50
2022-10-24T14:19:55.409Z,1.27
2022-10-24T14:22:26.237Z,0.63
2022-10-24T14:24:54.641Z,0.90
2022-10-24T14:27:25.528Z,0.80
2022-10-24T14:30:02.858Z,0.63
2022-10-24T14:32:32.446Z,0.93
2022-10-24T14:37:38.258Z,0.73
2022-10-24T14:40:11.806Z,0.90
2022-10-24T14:42:41.538Z,0.90
2022-10-24T14:45:23.406Z,0.73
2022-10-24T14:47:53.776Z,0.80
2022-10-24T14:50:35.719Z,1.45
2022-10-24T14:53:04.419Z,1.25
2022-10-24T14:55:33.107Z,1.35
2022-10-24T14:58:02.783Z,1.00
2022-10-24T15:00:38.883Z,1.20
2022-10-24T15:03:07.802Z,1.17
2022-10-24T15:05:36.856Z,1.40
2022-10-24T15:08:26.296Z,1.60
2022-10-24T15:11:24.627Z,1.80
2022-10-24T15:14:06.162Z,2.00
2022-10-24T15:16:37.760Z,1.10
2022-10-24T15:19:07.715Z,1.92
2022-10-24T15:21:42.763Z,1.70
2022-10-24T15:24:21.902Z,2.10
2022-10-24T15:26:50.017Z,1.50
2022-10-24T15:29:22.274Z,2.13
2022-10-24T15:31:52.276Z,2.00
2022-10-24T15:34:22.434Z,1.83
2022-10-24T15:36:52.847Z,1.40
2022-10-24T15:39:24.405Z,1.80
2022-10-24T15:41:53.209Z,2.25
2022-10-24T15:44:31.722Z,2.15
2022-10-24T15:47:00.091Z,1.90
2022-10-24T15:49:29.098Z,2.53
2022-10-24T15:51:59.067Z,2.47
2022-10-24T15:54:27.831Z,2.15
2022-10-24T15:56:56.921Z,2.00
2022-10-24T15:59:28.410Z,2.10
2022-10-24T16:01:58.475Z,2.72
2022-10-24T16:04:26.962Z,2.67
2022-10-24T16:06:55.104Z,3.08
2022-10-24T16:09:26.713Z,2.63
2022-10-24T16:11:55.220Z,2.50
2022-10-24T16:14:26.321Z,2.30
2022-10-24T16:16:56.093Z,2.58
2022-10-24T16:19:25.825Z,2.70
2022-10-24T16:21:58.288Z,2.53
2022-10-24T16:24:27.030Z,2.72
2022-10-24T16:26:55.124Z,2.63
2022-10-24T16:29:23.346Z,2.60
2022-10-24T16:31:51.966Z,3.20
2022-10-24T16:34:21.858Z,3.35
2022-10-24T16:36:53.484Z,3.17
2022-10-24T16:39:22.026Z,2.72
2022-10-24T16:41:50.201Z,4.05
2022-10-24T16:44:18.462Z,3.80
2022-10-24T16:46:46.606Z,3.38
2022-10-24T16:49:15.104Z,3.38
2022-10-24T16:51:46.300Z,3.22
2022-10-24T16:54:14.461Z,3.97
2022-10-24T16:56:44.039Z,3.65
2022-10-24T16:59:15.394Z,4.40
2022-10-24T17:01:44.367Z,4.10
2022-10-24T17:04:12.753Z,4.18
2022-10-24T17:06:40.899Z,4.10
2022-10-24T17:09:10.826Z,3.92
2022-10-24T17:11:45.500Z,4.43
2022-10-24T17:14:14.866Z,4.65
2022-10-24T17:16:44.191Z,4.63
2022-10-24T17:19:16.182Z,4.88
2022-10-24T17:21:47.290Z,4.82
2022-10-24T17:24:19.427Z,4.45
2022-10-24T17:26:48.107Z,4.95
2022-10-24T17:29:23.707Z,5.07
2022-10-24T17:31:52.128Z,4.72
2022-10-24T17:34:20.750Z,5.68
2022-10-24T17:41:01.583Z,4.90
2022-10-24T17:43:30.486Z,4.60
2022-10-24T17:45:58.965Z,5.43
2022-10-24T17:48:27.240Z,4.80
2022-10-24T17:50:57.495Z,4.70
2022-10-24T17:53:25.662Z,5.60
2022-10-24T17:55:55.320Z,5.43
2022-10-24T17:58:23.391Z,4.82
2022-10-24T18:00:51.535Z,5.03
2022-10-24T18:03:20.201Z,4.80
2022-10-24T18:05:48.355Z,4.25
2022-10-24T18:08:16.989Z,5.30
2022-10-24T18:10:45.026Z,4.85
2022-10-24T18:13:14.832Z,5.22
2022-10-24T18:15:43.123Z,4.85
2022-10-24T18:18:11.207Z,5.05
2022-10-24T18:20:39.335Z,4.82
2022-10-24T18:23:07.363Z,5.05
2022-10-24T18:25:37.441Z,5.18
2022-10-24T18:28:05.846Z,5.30
2022-10-24T18:30:36.374Z,5.80
2022-10-24T18:33:04.926Z,5.60
2022-10-24T18:35:34.155Z,5.22
2022-10-24T18:38:02.440Z,5.53
2022-10-24T18:40:33.443Z,5.18
2022-10-24T18:43:05.416Z,5.95
2022-10-24T18:45:36.219Z,5.50
2022-10-24T18:48:05.192Z,5.50
2022-10-24T18:50:33.661Z,4.85
2022-10-24T18:53:05.928Z,5.47
2022-10-24T18:55:35.760Z,5.30
2022-10-24T18:58:04.320Z,4.97
2022-10-24T19:00:38.137Z,5.07
2022-10-24T19:03:17.959Z,4.72
2022-10-24T19:05:51.987Z,4.57
2022-10-24T19:08:25.289Z,4.57
2022-10-24T19:10:56.296Z,5.15
2022-10-24T19:13:25.614Z,5.00
2022-10-24T19:16:00.145Z,4.45
2022-10-24T19:18:29.740Z,4.88
2022-10-24T19:20:57.908Z,5.03
2022-10-24T19:23:26.127Z,4.68
2022-10-24T19:25:54.365Z,4.95
2022-10-24T19:28:22.465Z,4.40
2022-10-24T19:30:50.771Z,4.57
2022-10-24T19:33:22.952Z,4.68
2022-10-24T19:35:51.026Z,4.75
2022-10-24T19:38:20.599Z,4.57
2022-10-24T19:40:49.676Z,4.90
2022-10-24T19:43:17.820Z,4.47
2022-10-24T19:45:50.829Z,4.43
2022-10-24T19:48:25.161Z,4.28
2022-10-24T19:50:53.299Z,4.65
2022-10-24T19:53:21.541Z,4.07
2022-10-24T19:55:49.615Z,4.28
2022-10-24T19:58:20.160Z,5.03
2022-10-24T20:00:48.910Z,3.95
2022-10-24T20:03:17.073Z,4.20
2022-10-24T20:05:46.907Z,4.00
2022-10-24T20:08:15.064Z,3.92
2022-10-24T20:10:43.200Z,3.78
2022-10-24T20:13:11.781Z,3.50
2022-10-24T20:15:39.816Z,3.33
2022-10-24T20:18:07.764Z,3.08
2022-10-24T20:24:41.786Z,2.88
2022-10-24T20:27:10.210Z,2.40
2022-10-24T20:29:38.409Z,2.78
2022-10-24T20:32:06.487Z,3.03
2022-10-24T20:34:34.728Z,2.90
2022-10-24T20:37:03.004Z,3.25
2022-10-24T20:39:31.492Z,3.00
2022-10-24T20:42:01.671Z,2.80
2022-10-24T20:44:29.682Z,2.78
2022-10-24T20:46:59.100Z,2.75
2022-10-24T20:49:27.786Z,2.42
2022-10-24T20:51:55.775Z,3.17
2022-10-24T20:54:23.981Z,2.50
2022-10-24T20:56:52.406Z,2.47
2022-10-24T20:59:22.798Z,2.92
2022-10-24T21:01:50.898Z,2.80
2022-10-24T21:04:20.868Z,2.90
2022-10-24T21:06:49.354Z,2.25
2022-10-24T21:09:18.093Z,2.97
2022-10-24T21:11:49.893Z,2.67
2022-10-24T21:14:20.802Z,2.47
2022-10-24T21:16:50.269Z,2.33
2022-10-24T21:19:20.704Z,2.58
2022-10-24T21:21:48.707Z,2.42
2022-10-24T21:24:18.407Z,2.45
2022-10-24T21:26:46.729Z,2.55
2022-10-24T21:29:32.313Z,2.28
2022-10-24T21:34:34.172Z,2.65
2022-10-24T21:37:05.895Z,2.53
2022-10-24T21:39:34.068Z,2.83
2022-10-24T21:42:02.330Z,2.50
2022-10-24T21:44:30.572Z,2.90
2022-10-24T21:46:58.596Z,2.42
2022-10-24T21:49:28.123Z,2.35
2022-10-24T21:51:56.479Z,2.70
2022-10-24T21:54:26.412Z,3.15
2022-10-24T21:56:56.431Z,2.58
2022-10-24T21:59:24.985Z,3.03
2022-10-24T22:01:53.226Z,2.83
2022-10-24T22:04:21.741Z,2.90
2022-10-24T22:06:51.613Z,2.22
2022-10-24T22:09:23.755Z,3.00
2022-10-24T22:11:54.438Z,2.78
2022-10-24T22:14:23.570Z,3.80
2022-10-24T22:16:52.693Z,2.58
2022-10-24T22:19:20.839Z,2.58
2022-10-24T22:21:51.764Z,3.03
2022-10-24T22:24:21.713Z,2.50
2022-10-24T22:26:50.638Z,2.95
2022-10-24T22:29:20.533Z,4.18
2022-10-24T22:31:49.564Z,2.90
2022-10-24T22:34:21.450Z,2.85
2022-10-24T22:37:14.660Z,3.17
2022-10-24T22:39:43.318Z,3.13
2022-10-24T22:42:16.083Z,3.20
2022-10-24T22:44:48.989Z,3.38
2022-10-24T22:47:38.042Z,3.08
2022-10-24T22:50:21.817Z,3.75
2022-10-24T22:52:52.617Z,3.25
2022-10-24T22:55:31.455Z,3.33
2022-10-24T22:58:00.359Z,3.50
2022-10-24T23:00:29.071Z,3.83
2022-10-24T23:03:05.323Z,3.47
2022-10-24T23:05:41.080Z,2.70
2022-10-24T23:10:42.543Z,3.20
2022-10-24T23:13:11.920Z,3.05
2022-10-24T23:15:40.556Z,2.50
2022-10-24T23:18:11.228Z,3.63
2022-10-24T23:20:44.708Z,3.65
2022-10-24T23:23:28.825Z,3.17
2022-10-24T23:26:03.785Z,3.83
2022-10-24T23:28:41.350Z,3.90
2022-10-24T23:31:10.384Z,3.35
2022-10-24T23:33:39.110Z,3.28
2022-10-24T23:36:08.064Z,3.22
2022-10-24T23:38:38.942Z,3.47
2022-10-24T23:41:10.117Z,3.40
2022-10-24T23:43:38.949Z,3.40
2022-10-24T23:46:17.648Z,4.43
2022-10-24T23:48:54.815Z,3.90
2022-10-24T23:51:31.208Z,3.92
2022-10-24T23:54:02.157Z,3.92
2022-10-24T23:56:31.042Z,3.72
2022-10-24T23:58:59.142Z,3.40
